Time;durP1;ratioP1;P1;durP2;ratioP2;P2;SDS_P1;SDS_P2;PMS_P1;PMS_P2;Temp;Humidity;BMP_temperature;BMP_pressure;BME280_temperature;BME280_humidity;BME280_pressure;Samples;Min_cycle;Max_cycle;Signal;HPM_P1;HPM_P2
2023/04/08 00:01:00;;;;;;;25.30;9.47;;;;;;;11.64;66.71;99242.69;6161704;23;20539;-91
2023/04/08 00:03:26;;;;;;;27.07;11.33;;;;;;;11.46;67.91;99241.06;6161581;23;20169;-91
2023/04/08 00:05:51;;;;;;;26.80;10.20;;;;;;;11.39;68.86;99239.72;6161633;23;20184;-92
2023/04/08 00:08:17;;;;;;;24.27;11.03;;;;;;;11.42;69.00;99238.72;6162779;23;20184;-91
2023/04/08 00:10:42;;;;;;;28.63;11.07;;;;;;;11.43;68.72;99241.25;6161304;23;20644;-91
2023/04/08 00:13:08;;;;;;;23.50;11.10;;;;;;;11.33;69.28;99236.56;6170426;23;20180;-91
2023/04/08 00:15:33;;;;;;;23.90;12.00;;;;;;;11.23;69.96;99241.47;6186516;23;20226;-90
2023/04/08 00:17:59;;;;;;;18.57;9.93;;;;;;;11.30;69.41;99237.59;6185955;23;20151;-90
2023/04/08 00:20:24;;;;;;;25.30;11.57;;;;;;;11.35;69.31;99243.44;6178072;23;20167;-91
2023/04/08 00:22:50;;;;;;;23.37;11.23;;;;;;;11.56;68.66;99236.16;6185882;23;20156;-90
2023/04/08 00:25:16;;;;;;;22.33;11.43;;;;;;;11.49;68.25;99230.41;6185798;23;20576;-91
2023/04/08 00:27:41;;;;;;;25.00;11.33;;;;;;;11.54;68.00;99228.38;6185866;23;20256;-92
2023/04/08 00:30:07;;;;;;;28.70;11.40;;;;;;;11.51;67.95;99230.31;6186006;23;20180;-90
2023/04/08 00:32:35;;;;;;;23.93;11.00;;;;;;;11.25;69.15;99226.50;6185402;23;20231;-91
2023/04/08 00:35:01;;;;;;;19.27;10.43;;;;;;;11.17;69.56;99231.28;6185595;23;20161;-90
2023/04/08 00:37:26;;;;;;;23.43;10.83;;;;;;;11.20;69.33;99236.38;6185776;23;20156;-90
2023/04/08 00:39:53;;;;;;;21.93;9.93;;;;;;;11.20;69.54;99239.00;6185557;23;20165;-90
2023/04/08 00:42:18;;;;;;;22.93;10.20;;;;;;;11.27;69.34;99245.63;6185606;23;20596;-91
2023/04/08 00:44:44;;;;;;;24.80;11.73;;;;;;;11.44;68.75;99250.81;6185980;23;20153;-90
2023/04/08 00:47:14;;;;;;;18.90;9.87;;;;;;;11.43;68.54;99251.75;6187216;23;20183;-91
2023/04/08 00:49:40;;;;;;;18.80;9.43;;;;;;;11.41;68.64;99247.50;6185547;23;20158;-90
2023/04/08 00:52:06;;;;;;;20.13;9.90;;;;;;;11.29;69.21;99246.41;6185653;23;20170;-90
2023/04/08 00:54:31;;;;;;;18.93;10.10;;;;;;;11.13;70.14;99253.41;6186578;23;20155;-90
2023/04/08 00:57:00;;;;;;;23.97;10.63;;;;;;;10.85;71.72;99255.75;6186248;23;20477;-90
2023/04/08 00:59:26;;;;;;;21.27;9.60;;;;;;;10.92;71.59;99258.00;6185622;23;20590;-91
2023/04/08 01:02:28;;;;;;;18.20;9.37;;;;;;;10.93;71.74;99256.19;6186730;23;20147;-90
2023/04/08 01:04:54;;;;;;;20.40;9.70;;;;;;;10.95;71.75;99249.94;6148138;23;20159;-90
2023/04/08 01:07:35;;;;;;;19.77;10.60;;;;;;;11.05;71.09;99253.81;6185734;23;20186;-91
2023/04/08 01:10:08;;;;;;;17.73;9.40;;;;;;;11.15;70.94;99256.78;6186745;23;20194;-91
2023/04/08 01:12:47;;;;;;;19.87;9.77;;;;;;;11.19;70.30;99258.28;6185430;23;20265;-91
2023/04/08 01:15:13;;;;;;;21.43;10.10;;;;;;;11.19;70.46;99263.53;6185652;23;20563;-91
2023/04/08 01:17:40;;;;;;;22.17;10.30;;;;;;;11.11;70.95;99263.09;6186897;23;20150;-91
2023/04/08 01:20:08;;;;;;;26.80;11.47;;;;;;;11.20;70.39;99270.50;6185696;23;20456;-91
2023/04/08 01:23:00;;;;;;;20.43;10.17;;;;;;;11.13;70.99;99270.91;6186802;23;20225;-91
2023/04/08 01:25:36;;;;;;;22.50;10.77;;;;;;;10.68;73.74;99261.00;6186842;23;20140;-90
2023/04/08 01:28:15;;;;;;;28.73;11.53;;;;;;;10.64;73.80;99269.97;6185260;23;20150;-90
2023/04/08 01:30:43;;;;;;;24.77;9.80;;;;;;;10.79;73.43;99270.03;6187167;23;20162;-90
2023/04/08 01:33:11;;;;;;;25.10;10.23;;;;;;;10.84;73.13;99272.41;6186262;23;20567;-90
2023/04/08 01:35:37;;;;;;;23.90;11.03;;;;;;;10.91;72.59;99273.78;6186236;23;20220;-90
2023/04/08 01:38:07;;;;;;;20.07;9.63;;;;;;;10.86;72.97;99268.78;6186372;23;20202;-90
2023/04/08 01:40:34;;;;;;;28.27;10.83;;;;;;;10.53;73.75;99267.03;6186849;23;20127;-91
2023/04/08 01:43:01;;;;;;;22.17;10.10;;;;;;;10.64;73.98;99268.16;6184967;23;20216;-90
2023/04/08 01:45:29;;;;;;;26.60;10.70;;;;;;;10.48;74.01;99268.09;6186380;23;20269;-91
2023/04/08 01:47:55;;;;;;;19.67;8.87;;;;;;;10.47;74.37;99270.81;6185227;23;20150;-91
2023/04/08 01:50:21;;;;;;;21.23;9.83;;;;;;;10.54;74.27;99266.09;6185062;23;20178;-91
2023/04/08 01:52:48;;;;;;;19.00;9.70;;;;;;;10.69;73.78;99273.22;6185059;23;20177;-91
2023/04/08 01:55:15;;;;;;;20.10;10.17;;;;;;;10.74;73.84;99271.19;6185175;23;20500;-92
2023/04/08 01:57:46;;;;;;;22.53;9.57;;;;;;;10.61;73.91;99275.38;6186694;23;20150;-90
2023/04/08 02:00:13;;;;;;;23.00;11.27;;;;;;;10.55;74.30;99278.28;6184778;23;20143;-91
2023/04/08 02:02:41;;;;;;;25.60;10.13;;;;;;;10.37;74.48;99285.31;6185932;23;20237;-91
2023/04/08 02:05:08;;;;;;;19.53;9.27;;;;;;;10.53;74.75;99288.00;6186376;23;20591;-90
2023/04/08 02:07:33;;;;;;;21.10;10.10;;;;;;;10.54;74.39;99292.31;6184992;23;20158;-90
2023/04/08 02:09:59;;;;;;;21.13;10.27;;;;;;;10.56;74.64;99287.84;6184956;23;20261;-90
2023/04/08 02:12:26;;;;;;;23.27;9.63;;;;;;;10.72;74.47;99292.22;6185802;23;20221;-90
2023/04/08 02:14:53;;;;;;;21.83;10.13;;;;;;;10.84;73.62;99286.38;6184790;23;20229;-90
2023/04/08 02:17:29;;;;;;;23.27;10.47;;;;;;;10.85;73.39;99288.06;6186270;23;20158;-90
2023/04/08 02:20:10;;;;;;;19.47;9.57;;;;;;;10.93;73.06;99287.66;6184777;23;20488;-90
2023/04/08 02:23:08;;;;;;;21.17;10.00;;;;;;;10.96;72.71;99290.13;6184776;23;20158;-91
2023/04/08 02:25:39;;;;;;;21.67;10.83;;;;;;;11.05;72.61;99293.16;6150848;23;20161;-91
2023/04/08 02:28:08;;;;;;;21.20;10.37;;;;;;;11.15;72.03;99292.66;6185952;23;20139;-90
2023/04/08 02:30:35;;;;;;;27.23;11.20;;;;;;;11.24;71.33;99287.75;6184518;23;20205;-91
2023/04/08 02:33:03;;;;;;;25.50;11.17;;;;;;;11.35;70.06;99288.03;6184519;23;20212;-90
2023/04/08 02:35:30;;;;;;;23.17;10.87;;;;;;;11.24;70.74;99293.00;6184931;23;20178;-91
2023/04/08 02:37:55;;;;;;;20.97;11.00;;;;;;;11.19;71.46;99284.53;6185990;23;20202;-90
2023/04/08 02:40:28;;;;;;;28.87;11.30;;;;;;;11.15;71.43;99277.75;6186158;23;20559;-91
2023/04/08 02:42:54;;;;;;;28.60;12.17;;;;;;;10.91;72.70;99279.03;6186205;23;20135;-90
2023/04/08 02:45:20;;;;;;;32.73;13.73;;;;;;;10.96;72.76;99290.13;6185819;23;20157;-90
2023/04/08 02:47:46;;;;;;;25.77;12.03;;;;;;;11.05;72.38;99287.91;6185706;23;20153;-91
2023/04/08 02:50:12;;;;;;;28.17;12.37;;;;;;;11.12;72.39;99293.66;6185846;23;20206;-91
2023/04/08 02:52:37;;;;;;;38.13;13.13;;;;;;;11.09;72.23;99299.06;6184363;23;20189;-91
2023/04/08 02:55:05;;;;;;;35.57;14.17;;;;;;;11.11;72.41;99302.44;6184472;23;20154;-90
2023/04/08 02:57:31;;;;;;;50.70;14.13;;;;;;;11.12;72.21;99293.66;6184115;23;20246;-90
2023/04/08 02:59:56;;;;;;;28.60;12.77;;;;;;;11.12;72.05;99296.28;6185546;23;20173;-90
2023/04/08 03:02:22;;;;;;;28.13;12.13;;;;;;;11.17;71.75;99301.28;6185720;23;20146;-90
2023/04/08 03:04:47;;;;;;;31.17;14.20;;;;;;;11.18;71.62;99303.00;6185722;23;20150;-91
2023/04/08 03:07:13;;;;;;;24.57;11.90;;;;;;;11.27;71.57;99303.34;6186031;23;20212;-91
2023/04/08 03:09:38;;;;;;;29.30;12.00;;;;;;;11.43;70.54;99303.38;6184377;23;20150;-91
2023/04/08 03:12:04;;;;;;;32.83;12.63;;;;;;;11.41;70.33;99308.72;6184012;23;20158;-91
2023/04/08 03:14:29;;;;;;;32.67;12.97;;;;;;;11.12;71.78;99312.03;6185693;23;20200;-91
2023/04/08 03:16:55;;;;;;;25.33;11.93;;;;;;;11.10;71.95;99319.13;6159750;23;20158;-91
2023/04/08 03:19:20;;;;;;;29.50;13.33;;;;;;;11.17;71.69;99312.63;6186060;23;20157;-90
2023/04/08 03:21:46;;;;;;;33.03;12.33;;;;;;;11.07;71.68;99300.91;6186229;23;20147;-91
2023/04/08 03:24:11;;;;;;;30.63;12.43;;;;;;;10.95;72.60;99307.63;6185652;23;20147;-91
2023/04/08 03:26:37;;;;;;;28.63;12.63;;;;;;;10.95;72.52;99301.56;6159748;23;20162;-90
2023/04/08 03:29:02;;;;;;;26.93;12.67;;;;;;;11.01;72.50;99314.34;6159837;23;20178;-91
2023/04/08 03:31:28;;;;;;;29.50;12.83;;;;;;;10.95;72.53;99314.69;6159875;23;20189;-91
2023/04/08 03:33:53;;;;;;;23.43;10.53;;;;;;;11.07;71.95;99312.28;6186390;23;20150;-90
2023/04/08 03:36:19;;;;;;;28.70;12.03;;;;;;;11.11;71.41;99316.41;6159659;23;20154;-91
2023/04/08 03:38:44;;;;;;;22.07;11.17;;;;;;;11.14;71.27;99314.59;6159600;23;20159;-91
2023/04/08 03:41:10;;;;;;;24.07;11.10;;;;;;;11.00;71.92;99320.53;6159645;23;20150;-90
2023/04/08 03:43:35;;;;;;;24.23;10.53;;;;;;;11.00;71.72;99326.63;6160279;23;20186;-90
2023/04/08 03:46:01;;;;;;;21.17;10.40;;;;;;;10.95;71.77;99325.16;6159536;23;20169;-90
2023/04/08 03:48:27;;;;;;;23.33;10.47;;;;;;;10.97;71.82;99326.78;6159662;23;20159;-91
2023/04/08 03:50:52;;;;;;;21.53;9.87;;;;;;;11.01;71.82;99327.47;6159427;23;20265;-91
2023/04/08 03:53:18;;;;;;;21.00;10.57;;;;;;;11.11;70.90;99324.28;6159605;23;20230;-91
2023/04/08 03:55:43;;;;;;;25.43;11.17;;;;;;;11.13;70.70;99318.97;6159579;23;20598;-91
2023/04/08 03:58:09;;;;;;;29.70;12.13;;;;;;;11.07;70.97;99316.66;6159497;23;20159;-90
2023/04/08 04:00:35;;;;;;;33.47;12.53;;;;;;;10.89;71.57;99325.47;6159270;23;20173;-90
2023/04/08 04:03:01;;;;;;;30.60;10.97;;;;;;;10.85;72.33;99321.28;6159328;23;20221;-89
2023/04/08 04:05:26;;;;;;;31.07;12.70;;;;;;;10.86;72.29;99325.63;6159353;23;20551;-90
2023/04/08 04:07:52;;;;;;;27.53;12.47;;;;;;;10.87;72.36;99322.09;6186250;23;20213;-90
2023/04/08 04:10:17;;;;;;;28.60;11.43;;;;;;;10.81;72.59;99322.38;6160956;23;20190;-90
2023/04/08 04:12:43;;;;;;;26.53;10.90;;;;;;;10.72;73.14;99330.69;6186909;23;20181;-90
2023/04/08 04:15:09;;;;;;;22.57;11.03;;;;;;;10.62;73.95;99321.59;6161286;23;20260;-90
2023/04/08 04:17:35;;;;;;;26.77;11.97;;;;;;;10.34;74.77;99325.59;6186863;23;20232;-90
2023/04/08 04:20:04;;;;;;;29.87;12.77;;;;;;;10.28;75.28;99330.28;6161184;23;20154;-89
2023/04/08 04:22:29;;;;;;;25.50;11.70;;;;;;;10.34;75.31;99335.22;6160927;23;20168;-90
2023/04/08 04:24:55;;;;;;;26.77;11.03;;;;;;;10.23;76.26;99343.59;6187489;23;20219;-90
2023/04/08 04:27:20;;;;;;;20.63;9.77;;;;;;;10.54;75.07;99329.84;6161105;23;20162;-89
2023/04/08 04:29:45;;;;;;;22.83;11.43;;;;;;;10.82;73.96;99331.97;6160931;23;20166;-90
2023/04/08 04:32:11;;;;;;;22.73;10.63;;;;;;;10.88;73.47;99332.47;6160954;23;20306;-90
2023/04/08 04:34:36;;;;;;;40.67;14.00;;;;;;;10.92;72.95;99341.91;6186775;23;20499;-89
2023/04/08 04:37:02;;;;;;;25.57;12.13;;;;;;;11.02;73.17;99342.28;6187289;23;20288;-89
2023/04/08 04:39:27;;;;;;;23.43;11.97;;;;;;;11.12;72.85;99346.13;6160988;23;20610;-89
2023/04/08 04:41:53;;;;;;;27.03;11.40;;;;;;;11.18;72.30;99350.22;6160981;23;20475;-89
2023/04/08 04:44:18;;;;;;;23.93;11.90;;;;;;;11.23;72.39;99354.28;6160795;23;20449;-90
2023/04/08 04:46:44;;;;;;;31.33;14.33;;;;;;;11.32;71.88;99355.59;6186788;23;20236;-90
2023/04/08 04:49:09;;;;;;;34.57;14.43;;;;;;;11.38;71.83;99353.50;6186798;23;20155;-90
2023/04/08 04:51:35;;;;;;;38.03;14.27;;;;;;;11.20;70.85;99359.69;6186675;23;20553;-90
2023/04/08 04:54:01;;;;;;;26.90;14.30;;;;;;;11.27;71.63;99360.25;6186773;23;20162;-90
2023/04/08 04:56:26;;;;;;;29.10;14.07;;;;;;;11.44;71.45;99363.69;6161478;23;20477;-90
2023/04/08 04:58:52;;;;;;;30.97;14.00;;;;;;;11.20;70.77;99364.94;6186576;23;20614;-90
2023/04/08 05:01:17;;;;;;;30.30;12.20;;;;;;;11.33;70.28;99365.16;6187031;23;20150;-90
2023/04/08 05:03:43;;;;;;;22.20;11.33;;;;;;;11.29;69.78;99363.63;6160727;23;20166;-90
2023/04/08 05:06:09;;;;;;;28.53;12.77;;;;;;;11.46;69.97;99368.84;6186985;23;20219;-92
2023/04/08 05:08:34;;;;;;;31.30;12.63;;;;;;;11.57;68.90;99369.13;6160687;23;20151;-92
2023/04/08 05:11:01;;;;;;;25.20;12.23;;;;;;;11.70;68.74;99360.56;6160719;23;20338;-90
2023/04/08 05:13:31;;;;;;;25.30;12.70;;;;;;;11.97;68.92;99362.63;6173562;23;20243;-92
2023/04/08 05:15:56;;;;;;;27.23;11.80;;;;;;;12.05;67.59;99355.16;6185489;23;20181;-90
2023/04/08 05:18:22;;;;;;;28.30;13.63;;;;;;;12.22;67.23;99357.69;6186991;23;20583;-90
2023/04/08 05:20:48;;;;;;;31.70;14.23;;;;;;;12.52;67.56;99349.88;6186953;23;20159;-90
2023/04/08 05:23:13;;;;;;;24.87;12.77;;;;;;;12.91;66.35;99348.44;6185457;23;20195;-90
2023/04/08 05:25:39;;;;;;;25.13;12.37;;;;;;;13.28;64.85;99343.66;6185750;23;20299;-90
2023/04/08 05:28:04;;;;;;;28.73;12.60;;;;;;;13.65;62.94;99339.63;6186755;23;20160;-90
2023/04/08 05:30:32;;;;;;;25.53;13.17;;;;;;;14.01;61.01;99343.44;6185355;23;20498;-93
2023/04/08 05:32:58;;;;;;;26.83;13.10;;;;;;;14.31;61.01;99339.78;6186680;23;20185;-92
2023/04/08 05:35:23;;;;;;;23.53;11.87;;;;;;;14.61;60.35;99333.38;6185067;23;20597;-92
2023/04/08 05:37:49;;;;;;;26.37;11.40;;;;;;;14.79;59.22;99336.59;6185174;23;20229;-93
2023/04/08 05:40:14;;;;;;;23.27;10.70;;;;;;;14.90;58.20;99334.09;6185111;23;20583;-92
2023/04/08 05:42:41;;;;;;;27.17;12.40;;;;;;;15.04;57.76;99336.63;6185329;23;20162;-92
2023/04/08 05:45:07;;;;;;;26.93;12.63;;;;;;;15.31;55.95;99342.69;6186734;23;20217;-92
2023/04/08 05:47:35;;;;;;;19.83;11.07;;;;;;;15.59;55.08;99339.00;6186915;23;20220;-91
2023/04/08 05:50:00;;;;;;;30.17;12.87;;;;;;;15.92;53.71;99346.38;6187109;23;20565;-91
2023/04/08 05:52:26;;;;;;;24.73;11.40;;;;;;;16.35;53.13;99339.69;6185511;23;20160;-91
2023/04/08 05:54:51;;;;;;;25.13;12.53;;;;;;;16.84;50.55;99344.03;6186982;23;20212;-91
2023/04/08 05:57:17;;;;;;;23.30;12.37;;;;;;;17.01;49.22;99340.97;6185973;23;20169;-93
2023/04/08 06:00:02;;;;;;;25.73;11.97;;;;;;;17.12;48.54;99346.28;6185100;23;20179;-93
2023/04/08 06:02:27;;;;;;;23.10;12.60;;;;;;;16.93;48.57;99352.13;6184742;23;20165;-93
2023/04/08 06:04:53;;;;;;;22.40;12.17;;;;;;;16.96;49.05;99353.69;6185146;23;20574;-93
2023/04/08 06:07:21;;;;;;;22.53;12.30;;;;;;;16.86;49.96;99352.72;6185656;23;20451;-93
2023/04/08 06:09:46;;;;;;;20.87;10.97;;;;;;;16.89;50.03;99357.78;6185325;23;20150;-93
2023/04/08 06:12:12;;;;;;;26.03;13.57;;;;;;;16.59;50.11;99355.59;6185150;23;20169;-93
2023/04/08 06:14:40;;;;;;;29.57;14.37;;;;;;;16.50;50.46;99357.09;6160373;23;20556;-93
2023/04/08 06:17:08;;;;;;;24.47;13.20;;;;;;;16.30;51.23;99367.44;6160329;23;20169;-92
2023/04/08 06:19:36;;;;;;;25.40;12.57;;;;;;;16.32;52.15;99366.38;6160147;23;20172;-93
2023/04/08 06:22:01;;;;;;;23.93;13.03;;;;;;;16.31;51.38;99361.19;6185979;23;20157;-93
2023/04/08 06:24:28;;;;;;;30.20;12.50;;;;;;;16.38;51.66;99367.72;6186477;23;20154;-94
2023/04/08 06:26:54;;;;;;;24.03;11.23;;;;;;;16.33;51.63;99370.69;6160152;23;20532;-94
2023/04/08 06:29:20;;;;;;;23.40;12.33;;;;;;;16.17;51.54;99364.81;6186919;23;20214;-92
2023/04/08 06:31:46;;;;;;;24.23;12.53;;;;;;;16.06;51.58;99367.41;6159635;23;20185;-94
2023/04/08 06:34:12;;;;;;;24.60;12.17;;;;;;;15.87;52.14;99373.16;6160003;23;20667;-93
2023/04/08 06:36:37;;;;;;;25.43;12.67;;;;;;;15.82;52.46;99366.50;6185988;23;20161;-93
2023/04/08 06:39:03;;;;;;;24.30;12.17;;;;;;;15.75;53.22;99370.50;6160423;23;20463;-93
2023/04/08 06:41:29;;;;;;;26.60;12.13;;;;;;;15.79;53.62;99367.56;6161254;23;20153;-92
2023/04/08 06:43:55;;;;;;;31.13;13.17;;;;;;;15.89;53.22;99367.72;6160161;23;20462;-92
2023/04/08 06:46:20;;;;;;;26.30;12.93;;;;;;;15.81;53.44;99370.94;6159881;23;20172;-93
2023/04/08 06:48:49;;;;;;;26.23;13.07;;;;;;;15.89;53.49;99367.72;6159922;23;20189;-93
2023/04/08 06:51:15;;;;;;;19.93;10.33;;;;;;;16.00;53.56;99373.13;6159837;23;20180;-93
2023/04/08 06:53:40;;;;;;;23.13;11.67;;;;;;;16.03;53.46;99366.75;6185979;23;20154;-93
2023/04/08 06:56:06;;;;;;;22.30;11.70;;;;;;;16.05;53.15;99375.44;6159929;23;20161;-93
2023/04/08 06:58:31;;;;;;;19.40;10.50;;;;;;;16.08;53.75;99362.84;6160196;23;20158;-93
2023/04/08 07:00:58;;;;;;;23.97;11.83;;;;;;;16.23;53.43;99371.47;6159982;23;20539;-93
2023/04/08 07:03:24;;;;;;;24.20;11.20;;;;;;;16.15;53.07;99374.66;6185741;23;20150;-93
2023/04/08 07:05:49;;;;;;;22.27;11.03;;;;;;;16.05;52.25;99378.91;6185888;23;20181;-93
2023/04/08 07:08:15;;;;;;;25.37;12.13;;;;;;;16.06;53.38;99379.78;6158379;23;20169;-94
2023/04/08 07:10:40;;;;;;;24.07;12.47;;;;;;;16.13;54.01;99384.50;6158192;23;20191;-93
2023/04/08 07:13:06;;;;;;;19.93;11.30;;;;;;;15.94;53.06;99386.75;6167293;23;20172;-94
2023/04/08 07:15:31;;;;;;;19.37;10.53;;;;;;;15.77;53.99;99389.75;6185617;23;20151;-93
2023/04/08 07:17:59;;;;;;;23.27;12.27;;;;;;;16.02;54.00;99389.72;6186063;23;20150;-93
2023/04/08 07:20:25;;;;;;;24.10;11.07;;;;;;;16.26;54.26;99395.06;6184941;23;20490;-93
2023/04/08 07:22:53;;;;;;;32.23;12.30;;;;;;;15.40;53.80;99386.13;6184425;23;20154;-93
2023/04/08 07:25:21;;;;;;;33.03;12.60;;;;;;;15.49;54.36;99389.97;6184790;23;20158;-94
2023/04/08 07:27:57;;;;;;;22.80;11.53;;;;;;;15.76;54.25;99391.53;6185745;23;20150;-93
2023/04/08 07:33:16;;;;;;;20.23;10.73;;;;;;;15.85;53.45;99393.53;6181409;23;20486;-92
2023/04/08 07:35:42;;;;;;;25.83;12.77;;;;;;;15.81;53.52;99394.72;6184386;23;20154;-94
2023/04/08 07:38:12;;;;;;;24.93;12.00;;;;;;;15.83;53.90;99392.78;6184372;23;20159;-93
2023/04/08 07:40:38;;;;;;;19.60;10.40;;;;;;;16.11;54.15;99388.22;6184463;23;20146;-93
2023/04/08 07:43:03;;;;;;;22.40;11.83;;;;;;;16.41;54.35;99381.56;6186113;23;20154;-92
2023/04/08 07:45:29;;;;;;;19.03;8.97;;;;;;;16.39;51.06;99386.13;6186492;23;20165;-93
2023/04/08 07:47:54;;;;;;;15.53;8.87;;;;;;;16.58;51.39;99377.75;6186659;23;20158;-93
2023/04/08 07:50:28;;;;;;;16.03;8.57;;;;;;;16.31;50.70;99380.56;6187534;23;20252;-93
2023/04/08 07:53:06;;;;;;;;;;;;;;;;;;;;;
2023/04/08 07:55:35;;;;;;;15.80;9.43;;;;;;;16.90;51.84;99380.66;6188240;23;20518;-90
2023/04/08 07:58:05;;;;;;;16.90;9.07;;;;;;;17.13;50.20;99369.19;6186591;23;20193;-92
2023/04/08 08:00:33;;;;;;;17.30;8.67;;;;;;;17.12;49.77;99376.28;6187568;23;20149;-91
2023/04/08 08:03:06;;;;;;;16.67;7.87;;;;;;;17.44;48.76;99378.28;6186902;23;20162;-91
2023/04/08 08:06:12;;;;;;;11.47;6.60;;;;;;;17.41;47.50;99373.22;6186301;23;20174;-90
2023/04/08 08:08:43;;;;;;;11.73;6.80;;;;;;;17.40;47.12;99364.41;6187108;23;20649;-90
2023/04/08 08:11:14;;;;;;;15.07;8.90;;;;;;;17.22;48.69;99372.94;6187681;23;20174;-91
2023/04/08 08:13:39;;;;;;;13.27;7.87;;;;;;;17.21;46.83;99374.75;6186300;23;20201;-91
2023/04/08 08:16:10;;;;;;;12.57;7.60;;;;;;;17.71;48.56;99370.88;6186063;23;20178;-91
2023/04/08 08:18:48;;;;;;;12.50;6.93;;;;;;;17.84;44.94;99370.78;6186444;23;20695;-93
2023/04/08 08:21:14;;;;;;;11.60;5.90;;;;;;;17.40;44.21;99372.38;6188064;23;20126;-91
2023/04/08 08:24:01;;;;;;;12.00;6.80;;;;;;;17.71;45.39;99361.09;6186339;23;20150;-90
2023/04/08 08:26:27;;;;;;;13.07;7.17;;;;;;;18.26;43.90;99364.72;6186791;23;20485;-92
2023/04/08 08:29:21;;;;;;;13.33;6.37;;;;;;;18.63;45.11;99349.34;6186176;23;20154;-92
2023/04/08 08:32:02;;;;;;;12.57;6.17;;;;;;;18.22;43.99;99368.56;6184480;23;20629;-91
2023/04/08 08:41:45;;;;;;;9.90;5.60;;;;;;;18.64;42.27;99349.19;6172154;23;20166;-91
2023/04/08 08:48:01;;;;;;;;;;;;;;;;;;;;;
2023/04/08 08:50:52;;;;;;;9.17;5.20;;;;;;;19.66;40.79;99333.41;6119879;23;20274;-90
2023/04/08 08:53:28;;;;;;;8.43;4.97;;;;;;;19.82;43.76;99333.78;6101106;23;20148;-91
2023/04/08 08:56:46;;;;;;;;;;;;;;;;;;;;;
2023/04/08 09:03:15;;;;;;;8.47;4.70;;;;;;;19.13;41.29;99339.81;6095495;23;20223;-91
2023/04/08 09:17:12;;;;;;;8.37;4.97;;;;;;;19.59;39.54;99350.91;5883841;24;20222;-91
2023/04/08 09:44:53;;;;;;;11.80;6.30;;;;;;;19.72;40.85;99335.56;5776960;24;20176;-89
2023/04/08 10:41:33;;;;;;;9.43;4.10;;;;;;;21.61;33.25;99288.88;6067166;23;20556;-93
2023/04/08 10:48:29;;;;;;;;;;;;;;;;;;;;;
2023/04/08 10:55:38;;;;;;;;;;;;;;;;;;;;;
2023/04/08 11:05:55;;;;;;;;;;;;;;;;;;;;;
2023/04/08 11:11:39;;;;;;;6.13;3.47;;;;;;;21.53;33.78;99245.22;5818451;24;20206;-94
2023/04/08 11:14:53;;;;;;;6.67;4.20;;;;;;;21.89;33.87;99247.03;5829051;24;20596;-93
2023/04/08 11:28:18;;;;;;;7.53;4.23;;;;;;;23.17;32.39;99233.19;5815794;24;20202;-92
2023/04/08 11:35:09;;;;;;;7.60;3.43;;;;;;;23.23;31.92;99237.91;5844830;24;20207;-93
2023/04/08 11:38:32;;;;;;;;;;;;;;;;;;;;;
2023/04/08 11:44:16;;;;;;;6.47;3.47;;;;;;;22.18;32.49;99229.00;5821182;24;20258;-91
2023/04/08 11:46:54;;;;;;;7.00;3.20;;;;;;;22.13;32.08;99219.78;5845279;24;20166;-90
2023/04/08 11:49:22;;;;;;;5.33;3.07;;;;;;;21.69;32.93;99222.28;5823116;24;20162;-91
2023/04/08 11:52:17;;;;;;;8.53;3.60;;;;;;;21.68;32.68;99225.91;5874559;24;20288;-92
2023/04/08 11:55:19;;;;;;;4.47;2.93;;;;;;;21.73;33.31;99217.44;5850683;24;20231;-91
2023/04/08 11:57:57;;;;;;;9.53;3.20;;;;;;;21.56;31.52;99221.78;5864780;24;20173;-93
2023/04/08 12:01:22;;;;;;;7.70;4.07;;;;;;;21.01;33.10;99225.31;5899630;24;20168;-93
2023/04/08 12:04:38;;;;;;;5.77;3.17;;;;;;;21.58;33.32;99225.13;5875680;24;20172;-92
2023/04/08 14:16:43;;;;;;;3.43;1.77;;;;;;;20.62;30.61;99128.66;6162587;23;20190;-86
2023/04/08 14:26:15;;;;;;;5.27;2.33;;;;;;;19.23;32.24;99136.09;6038792;23;20244;-91
2023/04/08 14:33:01;;;;;;;;;;;;;;;;;;;;;
2023/04/08 14:35:51;;;;;;;4.47;2.37;;;;;;;19.92;32.32;99127.13;6030020;23;20242;-92
2023/04/08 15:14:05;;;;;;;6.00;3.23;;;;;;;18.40;34.83;99131.72;5729056;25;20188;-92
2023/04/08 15:20:40;;;;;;;5.30;2.80;;;;;;;18.50;34.23;99121.19;5663182;25;20201;-92
2023/04/08 15:27:13;;;;;;;5.23;2.67;;;;;;;18.65;33.90;99130.50;5713773;25;20207;-93
2023/04/08 15:33:06;;;;;;;10.10;4.90;;;;;;;18.14;35.32;99132.22;5746051;24;20243;-91
2023/04/08 15:36:03;;;;;;;7.30;3.60;;;;;;;18.09;35.03;99140.56;5791670;24;20156;-91
2023/04/08 20:45:12;;;;;;;5.23;3.00;;;;;;;14.76;51.14;99357.91;5998017;23;20594;-91
2023/04/08 20:54:36;;;;;;;7.00;2.87;;;;;;;14.64;50.47;99361.38;6157376;23;20226;-91
2023/04/08 20:57:09;;;;;;;6.37;2.80;;;;;;;14.74;50.18;99363.28;6157008;23;20131;-91
2023/04/08 21:02:30;;;;;;;6.13;2.40;;;;;;;14.64;49.78;99351.66;6132002;23;20227;-90
2023/04/08 21:05:11;;;;;;;4.80;2.90;;;;;;;14.60;50.06;99357.22;6130492;23;20167;-90
2023/04/08 21:07:43;;;;;;;5.17;2.87;;;;;;;14.58;50.18;99354.69;6157208;23;20136;-91
2023/04/08 21:10:12;;;;;;;4.40;2.33;;;;;;;14.56;50.14;99358.38;6157489;23;20146;-91
2023/04/08 21:12:38;;;;;;;5.10;2.47;;;;;;;14.56;49.92;99361.00;6156957;23;20633;-90
2023/04/08 21:15:06;;;;;;;6.60;2.70;;;;;;;14.45;50.32;99369.63;6130547;23;20161;-91
2023/04/08 21:17:32;;;;;;;5.90;2.70;;;;;;;14.36;50.70;99374.66;6156423;23;20182;-90
2023/04/08 21:27:15;;;;;;;6.03;2.60;;;;;;;14.00;52.33;99373.34;6141365;23;20490;-90
2023/04/08 21:29:53;;;;;;;;;;;;;;;;;;;;;
2023/04/08 21:32:19;;;;;;;8.37;3.30;;;;;;;13.92;52.91;99369.50;6157132;23;20571;-91
2023/04/08 21:34:45;;;;;;;6.73;3.33;;;;;;;13.81;53.51;99369.34;6131304;23;20184;-91
2023/04/08 21:37:11;;;;;;;5.50;3.10;;;;;;;13.78;53.85;99372.16;6156154;23;20236;-91
2023/04/08 21:39:36;;;;;;;6.00;3.00;;;;;;;13.62;54.10;99377.53;6130507;23;20528;-89
2023/04/08 21:42:02;;;;;;;6.60;3.03;;;;;;;13.57;54.75;99374.34;6128610;23;20180;-89
2023/04/08 21:44:38;;;;;;;;;;;;;;;;;;;;;
2023/04/08 21:47:14;;;;;;;;;;;;;;;;;;;;;
2023/04/08 21:49:47;;;;;;;7.70;4.13;;;;;;;13.25;56.00;99372.78;6154244;23;20237;-91
2023/04/08 21:52:13;;;;;;;9.63;3.40;;;;;;;13.12;56.79;99370.03;6128767;23;20172;-90
2023/04/08 21:54:38;;;;;;;11.03;3.57;;;;;;;13.06;57.32;99374.75;6132259;23;20240;-90
2023/04/08 21:57:06;;;;;;;6.83;3.03;;;;;;;13.00;57.61;99373.34;6099040;23;20167;-90
2023/04/08 21:59:34;;;;;;;8.37;3.67;;;;;;;12.95;58.28;99380.66;6124292;23;20148;-90
2023/04/08 22:02:00;;;;;;;6.10;3.47;;;;;;;12.87;58.78;99378.47;6098964;23;20152;-90
2023/04/08 22:04:26;;;;;;;6.83;3.17;;;;;;;12.77;59.34;99379.09;6124502;23;20219;-91
2023/04/08 22:06:54;;;;;;;10.03;3.53;;;;;;;12.69;59.78;99371.63;6098897;23;20180;-90
2023/04/08 22:09:19;;;;;;;8.57;3.67;;;;;;;12.54;61.32;99384.81;6124269;23;20149;-89
2023/04/08 22:11:45;;;;;;;5.80;3.07;;;;;;;12.53;61.26;99383.97;6124512;23;20180;-90
2023/04/08 22:14:10;;;;;;;6.93;3.53;;;;;;;12.41;62.48;99387.28;6100985;23;20187;-90
2023/04/08 22:16:36;;;;;;;8.83;4.40;;;;;;;12.28;63.72;99383.66;6126619;23;20152;-90
2023/04/08 22:19:01;;;;;;;7.70;3.50;;;;;;;12.32;64.17;99386.03;6127232;23;20152;-89
2023/04/08 22:21:27;;;;;;;9.43;4.17;;;;;;;12.19;64.88;99384.16;6126636;23;20154;-90
2023/04/08 22:23:52;;;;;;;7.67;3.50;;;;;;;12.20;64.35;99380.59;6126547;23;20215;-89
2023/04/08 22:26:18;;;;;;;9.33;3.90;;;;;;;12.21;64.93;99391.00;6126482;23;20151;-90
2023/04/08 22:28:52;;;;;;;9.17;4.20;;;;;;;12.12;65.12;99388.06;6126850;23;20148;-91
2023/04/08 22:31:57;;;;;;;;;;;;;;;;;;;;;
2023/04/08 22:34:59;;;;;;;7.87;3.43;;;;;;;12.03;65.39;99388.53;6126428;23;20230;-91
2023/04/08 22:37:35;;;;;;;7.40;3.70;;;;;;;12.00;65.45;99384.31;6118753;23;20166;-91
2023/04/08 22:40:24;;;;;;;6.90;3.77;;;;;;;11.82;66.41;99387.09;6101181;23;20222;-91
2023/04/08 22:42:59;;;;;;;12.20;4.00;;;;;;;11.80;66.89;99387.16;6099984;23;20160;-91
2023/04/08 22:45:24;;;;;;;6.73;3.73;;;;;;;11.77;67.24;99396.97;6101926;23;20155;-91
2023/04/08 22:47:52;;;;;;;7.60;3.90;;;;;;;11.68;67.36;99387.78;6126363;23;20151;-91